sensor_id;sensor_type;location;lat;lon;timestamp;pressure;altitude;pressure_sealevel;temperature;humidity
33286;BME280;19656;50.096;20.014;2023-05-10T00:01:37;99352.75;;;10.49;49.87
33286;BME280;19656;50.096;20.014;2023-05-10T00:06:47;99348.70;;;10.41;49.99
33286;BME280;19656;50.096;20.014;2023-05-10T00:11:51;99347.48;;;10.35;49.82
33286;BME280;19656;50.096;20.014;2023-05-10T00:16:54;99345.20;;;10.28;50.07
33286;BME280;19656;50.096;20.014;2023-05-10T00:21:57;99344.86;;;10.21;50.35
33286;BME280;19656;50.096;20.014;2023-05-10T00:27:01;99344.95;;;10.13;50.23
33286;BME280;19656;50.096;20.014;2023-05-10T00:32:06;99339.92;;;10.07;50.54
33286;BME280;19656;50.096;20.014;2023-05-10T00:37:10;99334.94;;;10.02;50.69
33286;BME280;19656;50.096;20.014;2023-05-10T00:42:14;99330.84;;;10.02;50.66
33286;BME280;19656;50.096;20.014;2023-05-10T00:47:18;99325.11;;;10.03;50.68
33286;BME280;19656;50.096;20.014;2023-05-10T00:52:22;99324.09;;;10.02;50.86
33286;BME280;19656;50.096;20.014;2023-05-10T00:57:27;99321.95;;;9.96;50.87
33286;BME280;19656;50.096;20.014;2023-05-10T01:02:30;99318.16;;;9.94;51.04
33286;BME280;19656;50.096;20.014;2023-05-10T01:07:35;99314.32;;;9.90;51.07
33286;BME280;19656;50.096;20.014;2023-05-10T01:12:40;99313.14;;;9.89;51.03
33286;BME280;19656;50.096;20.014;2023-05-10T01:17:46;99311.71;;;9.83;51.29
33286;BME280;19656;50.096;20.014;2023-05-10T01:28:32;99307.48;;;9.65;51.87
33286;BME280;19656;50.096;20.014;2023-05-10T01:39:14;99306.55;;;9.50;52.33
33286;BME280;19656;50.096;20.014;2023-05-10T01:49:28;99303.80;;;9.39;52.72
33286;BME280;19656;50.096;20.014;2023-05-10T01:54:33;99301.98;;;9.36;52.92
33286;BME280;19656;50.096;20.014;2023-05-10T01:59:37;99296.91;;;9.32;52.90
33286;BME280;19656;50.096;20.014;2023-05-10T02:04:53;99300.52;;;9.23;53.16
33286;BME280;19656;50.096;20.014;2023-05-10T02:09:59;99295.64;;;9.19;53.23
33286;BME280;19656;50.096;20.014;2023-05-10T02:15:05;99289.77;;;9.19;53.21
33286;BME280;19656;50.096;20.014;2023-05-10T02:20:11;99284.68;;;9.18;53.13
33286;BME280;19656;50.096;20.014;2023-05-10T02:25:18;99282.13;;;9.16;53.13
33286;BME280;19656;50.096;20.014;2023-05-10T02:30:26;99275.26;;;9.16;53.20
33286;BME280;19656;50.096;20.014;2023-05-10T02:35:32;99273.15;;;9.12;53.37
33286;BME280;19656;50.096;20.014;2023-05-10T02:40:37;99270.75;;;9.07;53.61
33286;BME280;19656;50.096;20.014;2023-05-10T02:45:43;99274.00;;;9.03;53.76
33286;BME280;19656;50.096;20.014;2023-05-10T02:50:47;99273.43;;;9.00;53.78
33286;BME280;19656;50.096;20.014;2023-05-10T02:55:58;99276.61;;;8.97;53.87
33286;BME280;19656;50.096;20.014;2023-05-10T03:01:04;99271.11;;;8.93;53.90
33286;BME280;19656;50.096;20.014;2023-05-10T03:06:08;99265.03;;;8.91;53.99
33286;BME280;19656;50.096;20.014;2023-05-10T03:11:25;99270.10;;;8.86;54.24
33286;BME280;19656;50.096;20.014;2023-05-10T03:16:41;99273.41;;;8.83;54.18
33286;BME280;19656;50.096;20.014;2023-05-10T03:21:50;99271.39;;;8.84;54.33
33286;BME280;19656;50.096;20.014;2023-05-10T03:26:56;99270.82;;;8.89;54.35
33286;BME280;19656;50.096;20.014;2023-05-10T03:32:02;99270.38;;;8.90;54.29
33286;BME280;19656;50.096;20.014;2023-05-10T03:37:06;99264.59;;;8.86;54.45
33286;BME280;19656;50.096;20.014;2023-05-10T03:42:10;99266.78;;;8.85;54.61
33286;BME280;19656;50.096;20.014;2023-05-10T03:47:15;99262.36;;;8.85;54.78
33286;BME280;19656;50.096;20.014;2023-05-10T03:52:18;99264.02;;;8.90;54.90
33286;BME280;19656;50.096;20.014;2023-05-10T03:57:23;99266.17;;;8.96;54.76
33286;BME280;19656;50.096;20.014;2023-05-10T04:02:26;99268.25;;;9.04;54.58
33286;BME280;19656;50.096;20.014;2023-05-10T04:07:30;99267.63;;;9.09;54.44
33286;BME280;19656;50.096;20.014;2023-05-10T04:12:34;99269.93;;;9.16;54.34
33286;BME280;19656;50.096;20.014;2023-05-10T04:17:37;99267.92;;;9.20;54.54
33286;BME280;19656;50.096;20.014;2023-05-10T04:22:40;99270.21;;;9.28;54.65
33286;BME280;19656;50.096;20.014;2023-05-10T04:27:44;99272.23;;;9.36;54.43
33286;BME280;19656;50.096;20.014;2023-05-10T04:32:47;99270.49;;;9.45;54.43
33286;BME280;19656;50.096;20.014;2023-05-10T04:37:51;99272.59;;;9.56;54.34
33286;BME280;19656;50.096;20.014;2023-05-10T04:42:54;99268.56;;;9.65;54.35
33286;BME280;19656;50.096;20.014;2023-05-10T04:47:58;99271.17;;;9.72;54.46
33286;BME280;19656;50.096;20.014;2023-05-10T04:53:02;99265.06;;;9.80;54.71
33286;BME280;19656;50.096;20.014;2023-05-10T04:58:05;99268.16;;;9.91;54.62
33286;BME280;19656;50.096;20.014;2023-05-10T05:03:08;99263.86;;;10.08;54.49
33286;BME280;19656;50.096;20.014;2023-05-10T05:08:12;99259.64;;;10.30;54.26
33286;BME280;19656;50.096;20.014;2023-05-10T05:13:16;99252.41;;;10.41;53.80
33286;BME280;19656;50.096;20.014;2023-05-10T05:18:20;99250.31;;;10.56;53.97
33286;BME280;19656;50.096;20.014;2023-05-10T05:23:23;99249.92;;;10.69;53.80
33286;BME280;19656;50.096;20.014;2023-05-10T05:28:27;99245.64;;;10.78;53.37
33286;BME280;19656;50.096;20.014;2023-05-10T05:33:36;99246.77;;;10.89;53.50
33286;BME280;19656;50.096;20.014;2023-05-10T05:38:41;99247.50;;;11.06;53.42
33286;BME280;19656;50.096;20.014;2023-05-10T05:43:45;99246.45;;;11.29;53.09
33286;BME280;19656;50.096;20.014;2023-05-10T05:48:48;99246.59;;;11.47;53.06
33286;BME280;19656;50.096;20.014;2023-05-10T05:53:52;99248.61;;;11.57;52.88
33286;BME280;19656;50.096;20.014;2023-05-10T05:58:56;99252.02;;;11.65;52.74
33286;BME280;19656;50.096;20.014;2023-05-10T06:04:02;99251.53;;;11.73;52.68
33286;BME280;19656;50.096;20.014;2023-05-10T06:09:13;99253.04;;;11.86;52.48
33286;BME280;19656;50.096;20.014;2023-05-10T06:14:16;99254.25;;;12.00;52.25
33286;BME280;19656;50.096;20.014;2023-05-10T06:25:44;99256.55;;;12.31;51.92
33286;BME280;19656;50.096;20.014;2023-05-10T06:30:47;99254.88;;;12.40;51.68
33286;BME280;19656;50.096;20.014;2023-05-10T06:35:51;99255.24;;;12.53;51.49
33286;BME280;19656;50.096;20.014;2023-05-10T06:40:55;99253.73;;;12.68;51.05
33286;BME280;19656;50.096;20.014;2023-05-10T06:45:58;99253.95;;;12.80;51.08
33286;BME280;19656;50.096;20.014;2023-05-10T06:51:02;99252.12;;;12.94;51.21
33286;BME280;19656;50.096;20.014;2023-05-10T06:56:06;99247.98;;;13.13;51.33
33286;BME280;19656;50.096;20.014;2023-05-10T07:01:09;99252.23;;;13.26;50.73
33286;BME280;19656;50.096;20.014;2023-05-10T07:06:13;99248.23;;;13.38;50.30
33286;BME280;19656;50.096;20.014;2023-05-10T07:17:59;99245.75;;;13.58;50.28
33286;BME280;19656;50.096;20.014;2023-05-10T07:23:03;99239.55;;;13.70;50.13
33286;BME280;19656;50.096;20.014;2023-05-10T07:28:07;99246.13;;;13.85;49.79
33286;BME280;19656;50.096;20.014;2023-05-10T07:33:14;99242.64;;;13.99;49.61
33286;BME280;19656;50.096;20.014;2023-05-10T07:38:24;99242.40;;;14.14;49.48
33286;BME280;19656;50.096;20.014;2023-05-10T07:43:27;99241.07;;;14.27;49.19
33286;BME280;19656;50.096;20.014;2023-05-10T07:48:31;99228.13;;;14.45;49.32
33286;BME280;19656;50.096;20.014;2023-05-10T07:53:35;99227.85;;;14.59;49.09
33286;BME280;19656;50.096;20.014;2023-05-10T07:58:38;99223.88;;;14.71;48.76
33286;BME280;19656;50.096;20.014;2023-05-10T08:03:41;99220.44;;;14.88;47.80
33286;BME280;19656;50.096;20.014;2023-05-10T08:08:46;99213.02;;;15.08;46.84
33286;BME280;19656;50.096;20.014;2023-05-10T08:13:52;99211.02;;;15.24;46.35
33286;BME280;19656;50.096;20.014;2023-05-10T08:18:56;99207.02;;;15.41;45.62
33286;BME280;19656;50.096;20.014;2023-05-10T08:24:00;99207.49;;;15.60;45.13
33286;BME280;19656;50.096;20.014;2023-05-10T08:29:04;99198.40;;;15.80;44.67
33286;BME280;19656;50.096;20.014;2023-05-10T08:34:10;99198.04;;;15.99;45.92
33286;BME280;19656;50.096;20.014;2023-05-10T08:39:14;99192.08;;;16.20;44.23
33286;BME280;19656;50.096;20.014;2023-05-10T08:44:31;99197.23;;;16.40;44.07
33286;BME280;19656;50.096;20.014;2023-05-10T08:49:41;99194.19;;;16.57;41.43
33286;BME280;19656;50.096;20.014;2023-05-10T08:54:45;99196.52;;;16.72;40.88
33286;BME280;19656;50.096;20.014;2023-05-10T08:59:48;99194.21;;;16.86;39.97
33286;BME280;19656;50.096;20.014;2023-05-10T09:04:51;99193.42;;;16.97;40.26
33286;BME280;19656;50.096;20.014;2023-05-10T09:09:56;99190.05;;;17.10;39.08
33286;BME280;19656;50.096;20.014;2023-05-10T09:15:01;99190.14;;;17.27;39.34
33286;BME280;19656;50.096;20.014;2023-05-10T09:20:06;99191.91;;;17.44;38.52
33286;BME280;19656;50.096;20.014;2023-05-10T09:25:15;99187.55;;;17.57;37.78
33286;BME280;19656;50.096;20.014;2023-05-10T09:35:29;99186.89;;;17.98;38.99
33286;BME280;19656;50.096;20.014;2023-05-10T09:40:33;99180.95;;;18.20;37.82
33286;BME280;19656;50.096;20.014;2023-05-10T09:45:36;99179.64;;;18.31;36.69
33286;BME280;19656;50.096;20.014;2023-05-10T09:50:41;99179.16;;;18.42;36.16
33286;BME280;19656;50.096;20.014;2023-05-10T09:55:46;99180.55;;;18.61;36.70
33286;BME280;19656;50.096;20.014;2023-05-10T10:00:50;99174.88;;;18.78;37.13
33286;BME280;19656;50.096;20.014;2023-05-10T10:05:56;99174.66;;;18.85;37.60
33286;BME280;19656;50.096;20.014;2023-05-10T10:11:00;99171.70;;;19.06;35.39
33286;BME280;19656;50.096;20.014;2023-05-10T10:16:05;99162.83;;;19.16;35.42
33286;BME280;19656;50.096;20.014;2023-05-10T10:21:08;99159.83;;;19.34;34.38
33286;BME280;19656;50.096;20.014;2023-05-10T10:26:12;99154.21;;;19.57;34.55
33286;BME280;19656;50.096;20.014;2023-05-10T10:31:36;99146.88;;;19.82;34.37
33286;BME280;19656;50.096;20.014;2023-05-10T10:36:46;99147.43;;;19.79;33.10
33286;BME280;19656;50.096;20.014;2023-05-10T10:41:59;99144.01;;;19.86;33.86
33286;BME280;19656;50.096;20.014;2023-05-10T10:47:22;99142.38;;;20.01;33.81
33286;BME280;19656;50.096;20.014;2023-05-10T10:57:45;99129.83;;;20.27;30.32
33286;BME280;19656;50.096;20.014;2023-05-10T11:02:56;99124.82;;;20.48;31.49
33286;BME280;19656;50.096;20.014;2023-05-10T11:08:08;99120.45;;;20.80;29.86
33286;BME280;19656;50.096;20.014;2023-05-10T11:13:13;99118.30;;;21.08;30.24
33286;BME280;19656;50.096;20.014;2023-05-10T11:18:24;99113.52;;;21.33;28.38
33286;BME280;19656;50.096;20.014;2023-05-10T11:23:51;99106.48;;;21.47;29.97
33286;BME280;19656;50.096;20.014;2023-05-10T11:28:54;99102.83;;;21.81;29.66
33286;BME280;19656;50.096;20.014;2023-05-10T11:33:59;99102.73;;;22.02;28.49
33286;BME280;19656;50.096;20.014;2023-05-10T11:39:04;99099.70;;;22.16;28.77
33286;BME280;19656;50.096;20.014;2023-05-10T11:44:09;99092.34;;;22.23;28.25
33286;BME280;19656;50.096;20.014;2023-05-10T11:49:12;99090.94;;;22.39;28.47
33286;BME280;19656;50.096;20.014;2023-05-10T11:54:16;99092.61;;;22.51;28.35
33286;BME280;19656;50.096;20.014;2023-05-10T11:59:19;99088.91;;;22.52;28.41
33286;BME280;19656;50.096;20.014;2023-05-10T12:04:22;99083.87;;;22.70;28.59
33286;BME280;19656;50.096;20.014;2023-05-10T12:09:30;99083.02;;;22.98;27.33
33286;BME280;19656;50.096;20.014;2023-05-10T12:14:50;99072.20;;;23.14;27.28
33286;BME280;19656;50.096;20.014;2023-05-10T12:19:53;99072.98;;;23.18;26.43
33286;BME280;19656;50.096;20.014;2023-05-10T12:24:58;99080.20;;;23.09;26.42
33286;BME280;19656;50.096;20.014;2023-05-10T12:30:02;99070.89;;;23.14;26.89
33286;BME280;19656;50.096;20.014;2023-05-10T12:35:06;99061.98;;;23.30;27.43
33286;BME280;19656;50.096;20.014;2023-05-10T12:40:10;99058.81;;;23.49;27.18
33286;BME280;19656;50.096;20.014;2023-05-10T12:45:14;99056.01;;;23.62;27.47
33286;BME280;19656;50.096;20.014;2023-05-10T12:50:17;99054.90;;;23.75;26.12
33286;BME280;19656;50.096;20.014;2023-05-10T12:55:21;99048.02;;;23.85;26.28
33286;BME280;19656;50.096;20.014;2023-05-10T13:00:25;99039.05;;;24.11;26.55
33286;BME280;19656;50.096;20.014;2023-05-10T13:05:32;99038.63;;;24.22;24.90
33286;BME280;19656;50.096;20.014;2023-05-10T13:10:35;99033.83;;;24.14;24.75
33286;BME280;19656;50.096;20.014;2023-05-10T13:40:20;99020.02;;;24.04;24.86
33286;BME280;19656;50.096;20.014;2023-05-10T13:45:23;99010.93;;;23.94;24.93
33286;BME280;19656;50.096;20.014;2023-05-10T13:50:27;98999.93;;;23.80;25.69
33286;BME280;19656;50.096;20.014;2023-05-10T13:55:31;98998.35;;;23.82;25.08
33286;BME280;19656;50.096;20.014;2023-05-10T14:00:34;98991.80;;;23.86;24.67
33286;BME280;19656;50.096;20.014;2023-05-10T14:05:38;98988.48;;;23.85;25.02
33286;BME280;19656;50.096;20.014;2023-05-10T14:10:41;98985.96;;;23.84;25.52
33286;BME280;19656;50.096;20.014;2023-05-10T14:15:45;98987.45;;;23.84;25.42
33286;BME280;19656;50.096;20.014;2023-05-10T14:20:49;98983.66;;;23.69;25.29
33286;BME280;19656;50.096;20.014;2023-05-10T14:25:52;98983.72;;;23.46;25.15
33286;BME280;19656;50.096;20.014;2023-05-10T14:30:56;98979.58;;;23.21;25.69
33286;BME280;19656;50.096;20.014;2023-05-10T14:35:59;98974.73;;;23.05;26.25
33286;BME280;19656;50.096;20.014;2023-05-10T14:41:03;98974.89;;;22.86;26.22
33286;BME280;19656;50.096;20.014;2023-05-10T14:46:06;98975.96;;;22.66;26.08
33286;BME280;19656;50.096;20.014;2023-05-10T14:51:10;98971.67;;;22.46;26.63
33286;BME280;19656;50.096;20.014;2023-05-10T14:56:15;98979.30;;;22.22;28.13
33286;BME280;19656;50.096;20.014;2023-05-10T15:01:18;98977.27;;;21.96;28.14
33286;BME280;19656;50.096;20.014;2023-05-10T15:06:31;98978.88;;;21.84;28.40
33286;BME280;19656;50.096;20.014;2023-05-10T15:11:34;98969.92;;;21.79;28.68
33286;BME280;19656;50.096;20.014;2023-05-10T15:16:39;98972.33;;;21.70;28.40
33286;BME280;19656;50.096;20.014;2023-05-10T15:21:42;98972.32;;;21.57;28.42
33286;BME280;19656;50.096;20.014;2023-05-10T15:26:47;98966.91;;;21.47;28.66
33286;BME280;19656;50.096;20.014;2023-05-10T15:31:51;98965.86;;;21.45;28.62
33286;BME280;19656;50.096;20.014;2023-05-10T15:42:31;98964.53;;;21.34;29.50
33286;BME280;19656;50.096;20.014;2023-05-10T15:47:35;98965.79;;;21.27;28.72
33286;BME280;19656;50.096;20.014;2023-05-10T15:52:39;98967.17;;;21.29;29.28
33286;BME280;19656;50.096;20.014;2023-05-10T15:57:43;98971.63;;;21.35;29.14
33286;BME280;19656;50.096;20.014;2023-05-10T16:02:47;98966.27;;;21.34;28.67
33286;BME280;19656;50.096;20.014;2023-05-10T16:07:50;98965.65;;;21.26;28.51
33286;BME280;19656;50.096;20.014;2023-05-10T16:12:54;98969.98;;;21.21;28.61
33286;BME280;19656;50.096;20.014;2023-05-10T16:17:58;98970.92;;;21.09;29.16
33286;BME280;19656;50.096;20.014;2023-05-10T16:23:05;98972.85;;;20.92;29.31
33286;BME280;19656;50.096;20.014;2023-05-10T16:28:10;98975.96;;;20.70;29.39
33286;BME280;19656;50.096;20.014;2023-05-10T16:39:27;98983.77;;;20.31;29.61
33286;BME280;19656;50.096;20.014;2023-05-10T16:44:31;98985.39;;;20.16;30.67
33286;BME280;19656;50.096;20.014;2023-05-10T16:49:35;98989.19;;;20.05;31.17
33286;BME280;19656;50.096;20.014;2023-05-10T16:54:39;98991.23;;;19.99;31.24
33286;BME280;19656;50.096;20.014;2023-05-10T16:59:43;98991.77;;;19.96;30.42
33286;BME280;19656;50.096;20.014;2023-05-10T17:04:47;98995.90;;;19.89;31.34
33286;BME280;19656;50.096;20.014;2023-05-10T17:09:50;98999.67;;;19.78;30.94
33286;BME280;19656;50.096;20.014;2023-05-10T17:14:55;99001.05;;;19.62;30.95
33286;BME280;19656;50.096;20.014;2023-05-10T17:19:58;99001.83;;;19.51;30.92
33286;BME280;19656;50.096;20.014;2023-05-10T17:25:03;99004.98;;;19.41;31.18
33286;BME280;19656;50.096;20.014;2023-05-10T17:30:07;99013.80;;;19.32;31.64
33286;BME280;19656;50.096;20.014;2023-05-10T17:35:11;99018.17;;;19.20;32.61
33286;BME280;19656;50.096;20.014;2023-05-10T17:40:15;99020.28;;;19.12;33.01
33286;BME280;19656;50.096;20.014;2023-05-10T17:45:19;99027.89;;;19.07;33.36
33286;BME280;19656;50.096;20.014;2023-05-10T17:50:23;99033.29;;;19.04;33.56
33286;BME280;19656;50.096;20.014;2023-05-10T17:55:27;99041.71;;;18.98;33.69
33286;BME280;19656;50.096;20.014;2023-05-10T18:00:35;99046.02;;;18.85;33.96
33286;BME280;19656;50.096;20.014;2023-05-10T18:05:39;99056.88;;;18.74;33.93
33286;BME280;19656;50.096;20.014;2023-05-10T18:10:45;99064.20;;;18.62;33.62
33286;BME280;19656;50.096;20.014;2023-05-10T18:15:51;99066.71;;;18.43;33.39
33286;BME280;19656;50.096;20.014;2023-05-10T18:20:55;99075.58;;;18.16;33.76
33286;BME280;19656;50.096;20.014;2023-05-10T18:26:01;99077.48;;;17.93;33.93
33286;BME280;19656;50.096;20.014;2023-05-10T18:31:08;99089.02;;;17.77;34.24
33286;BME280;19656;50.096;20.014;2023-05-10T18:36:12;99095.45;;;17.59;34.18
33286;BME280;19656;50.096;20.014;2023-05-10T18:41:17;99102.33;;;17.43;34.51
33286;BME280;19656;50.096;20.014;2023-05-10T18:46:21;99107.99;;;17.27;34.73
33286;BME280;19656;50.096;20.014;2023-05-10T18:51:25;99106.20;;;17.13;34.55
33286;BME280;19656;50.096;20.014;2023-05-10T18:56:31;99110.83;;;17.01;34.70
33286;BME280;19656;50.096;20.014;2023-05-10T19:01:36;99120.98;;;16.90;34.92
33286;BME280;19656;50.096;20.014;2023-05-10T19:06:43;99123.08;;;16.78;35.00
33286;BME280;19656;50.096;20.014;2023-05-10T19:11:46;99128.42;;;16.65;35.18
33286;BME280;19656;50.096;20.014;2023-05-10T19:16:51;99133.09;;;16.55;35.17
33286;BME280;19656;50.096;20.014;2023-05-10T19:21:56;99134.38;;;16.44;35.27
33286;BME280;19656;50.096;20.014;2023-05-10T19:27:01;99136.83;;;16.32;35.38
33286;BME280;19656;50.096;20.014;2023-05-10T19:32:08;99137.92;;;16.21;35.50
33286;BME280;19656;50.096;20.014;2023-05-10T19:37:14;99141.08;;;16.13;35.90
33286;BME280;19656;50.096;20.014;2023-05-10T19:42:18;99141.94;;;16.02;35.94
33286;BME280;19656;50.096;20.014;2023-05-10T19:47:22;99147.14;;;15.96;36.15
33286;BME280;19656;50.096;20.014;2023-05-10T19:52:26;99144.93;;;15.84;36.36
33286;BME280;19656;50.096;20.014;2023-05-10T19:57:31;99151.38;;;15.71;36.65
33286;BME280;19656;50.096;20.014;2023-05-10T20:02:35;99151.50;;;15.71;36.86
33286;BME280;19656;50.096;20.014;2023-05-10T20:07:39;99155.61;;;15.67;36.77
33286;BME280;19656;50.096;20.014;2023-05-10T20:12:47;99156.61;;;15.56;37.01
33286;BME280;19656;50.096;20.014;2023-05-10T20:17:55;99158.66;;;15.47;36.98
33286;BME280;19656;50.096;20.014;2023-05-10T20:22:59;99158.50;;;15.37;37.26
33286;BME280;19656;50.096;20.014;2023-05-10T20:28:06;99162.06;;;15.30;37.14
33286;BME280;19656;50.096;20.014;2023-05-10T20:33:12;99165.80;;;15.22;37.46
33286;BME280;19656;50.096;20.014;2023-05-10T20:38:18;99167.45;;;15.12;37.81
33286;BME280;19656;50.096;20.014;2023-05-10T20:43:21;99160.70;;;15.01;38.15
33286;BME280;19656;50.096;20.014;2023-05-10T20:48:25;99162.73;;;14.98;37.93
33286;BME280;19656;50.096;20.014;2023-05-10T20:53:29;99165.55;;;14.94;38.26
33286;BME280;19656;50.096;20.014;2023-05-10T20:58:33;99162.02;;;14.86;38.49
33286;BME280;19656;50.096;20.014;2023-05-10T21:03:39;99162.22;;;14.81;38.70
33286;BME280;19656;50.096;20.014;2023-05-10T21:08:43;99163.33;;;14.76;38.76
33286;BME280;19656;50.096;20.014;2023-05-10T21:13:47;99163.52;;;14.71;38.77
33286;BME280;19656;50.096;20.014;2023-05-10T21:18:51;99163.13;;;14.64;39.00
33286;BME280;19656;50.096;20.014;2023-05-10T21:23:54;99165.02;;;14.59;39.49
33286;BME280;19656;50.096;20.014;2023-05-10T21:28:58;99168.16;;;14.53;39.45
33286;BME280;19656;50.096;20.014;2023-05-10T21:34:02;99164.32;;;14.49;39.57
33286;BME280;19656;50.096;20.014;2023-05-10T21:39:06;99167.06;;;14.43;39.68
33286;BME280;19656;50.096;20.014;2023-05-10T21:44:11;99170.69;;;14.35;40.17
33286;BME280;19656;50.096;20.014;2023-05-10T21:49:14;99170.10;;;14.24;40.53
33286;BME280;19656;50.096;20.014;2023-05-10T21:54:18;99170.23;;;14.20;40.89
33286;BME280;19656;50.096;20.014;2023-05-10T21:59:22;99173.09;;;14.08;41.13
33286;BME280;19656;50.096;20.014;2023-05-10T22:04:27;99173.25;;;13.99;41.50
33286;BME280;19656;50.096;20.014;2023-05-10T22:09:32;99175.61;;;13.91;41.75
33286;BME280;19656;50.096;20.014;2023-05-10T22:14:37;99182.08;;;13.80;42.16
33286;BME280;19656;50.096;20.014;2023-05-10T22:19:41;99187.38;;;13.71;42.37
33286;BME280;19656;50.096;20.014;2023-05-10T22:24:46;99190.13;;;13.65;42.59
33286;BME280;19656;50.096;20.014;2023-05-10T22:29:50;99193.91;;;13.57;42.88
33286;BME280;19656;50.096;20.014;2023-05-10T22:34:55;99192.77;;;13.51;42.96
33286;BME280;19656;50.096;20.014;2023-05-10T22:39:59;99192.02;;;13.44;42.96
33286;BME280;19656;50.096;20.014;2023-05-10T22:45:03;99194.21;;;13.38;43.17
33286;BME280;19656;50.096;20.014;2023-05-10T22:50:07;99195.55;;;13.34;43.12
33286;BME280;19656;50.096;20.014;2023-05-10T22:55:11;99196.64;;;13.31;43.18
33286;BME280;19656;50.096;20.014;2023-05-10T23:00:15;99200.94;;;13.29;43.23
33286;BME280;19656;50.096;20.014;2023-05-10T23:05:19;99205.19;;;13.27;43.35
33286;BME280;19656;50.096;20.014;2023-05-10T23:10:22;99203.58;;;13.24;43.28
33286;BME280;19656;50.096;20.014;2023-05-10T23:15:26;99208.09;;;13.20;43.23
33286;BME280;19656;50.096;20.014;2023-05-10T23:20:40;99204.88;;;13.18;43.37
33286;BME280;19656;50.096;20.014;2023-05-10T23:25:44;99206.16;;;13.15;43.35
33286;BME280;19656;50.096;20.014;2023-05-10T23:30:53;99207.52;;;13.11;43.64
33286;BME280;19656;50.096;20.014;2023-05-10T23:35:58;99208.67;;;13.07;43.65
33286;BME280;19656;50.096;20.014;2023-05-10T23:41:02;99214.21;;;13.04;43.76
33286;BME280;19656;50.096;20.014;2023-05-10T23:46:08;99214.94;;;13.01;43.94
33286;BME280;19656;50.096;20.014;2023-05-10T23:51:11;99214.86;;;12.97;43.86
33286;BME280;19656;50.096;20.014;2023-05-10T23:56:15;99219.70;;;12.94;44.19
